Time;durP1;ratioP1;P1;durP2;ratioP2;P2;SDS_P1;SDS_P2;PMS_P1;PMS_P2;Temp;Humidity;BMP_temperature;BMP_pressure;BME280_temperature;BME280_humidity;BME280_pressure;Samples;Min_cycle;Max_cycle;Signal;HPM_P1;HPM_P2
2022/10/22 00:01:03;;;;;;;16.75;5.85;;;13.40;99.90;;;;;;5105988;27;20039;-82
2022/10/22 00:03:29;;;;;;;10.40;5.88;;;13.30;99.90;;;;;;5140176;27;20035;-82
2022/10/22 00:05:55;;;;;;;8.80;5.70;;;13.30;99.90;;;;;;5140410;27;20104;-82
2022/10/22 00:08:21;;;;;;;9.30;6.15;;;13.30;99.90;;;;;;5101572;27;20042;-81
2022/10/22 00:10:46;;;;;;;14.73;5.93;;;13.30;99.90;;;;;;5107624;27;20104;-82
2022/10/22 00:13:12;;;;;;;9.38;5.90;;;13.30;99.90;;;;;;5139278;27;20482;-82
2022/10/22 00:15:38;;;;;;;12.45;6.22;;;13.20;99.90;;;;;;5157129;27;20039;-82
2022/10/22 00:18:04;;;;;;;9.00;5.97;;;13.20;99.90;;;;;;5122995;27;20058;-82
2022/10/22 00:20:30;;;;;;;12.15;6.30;;;13.20;99.90;;;;;;5157205;27;20038;-82
2022/10/22 00:22:55;;;;;;;9.73;6.32;;;13.20;99.90;;;;;;5122705;27;20398;-81
2022/10/22 00:25:21;;;;;;;11.40;5.85;;;13.20;99.90;;;;;;5112118;27;20053;-83
2022/10/22 00:27:47;;;;;;;9.95;5.63;;;13.20;99.90;;;;;;5105555;27;20030;-82
2022/10/22 00:30:12;;;;;;;11.98;6.07;;;13.10;99.90;;;;;;5139578;27;20121;-83
2022/10/22 00:32:38;;;;;;;10.73;5.90;;;13.10;99.90;;;;;;5122524;27;20039;-82
2022/10/22 00:35:04;;;;;;;9.57;5.68;;;13.10;99.90;;;;;;5122684;27;20117;-82
2022/10/22 00:37:30;;;;;;;9.40;6.03;;;13.10;99.90;;;;;;5139810;27;20107;-83
2022/10/22 00:39:56;;;;;;;14.68;6.68;;;13.10;99.90;;;;;;5156549;27;20039;-81
2022/10/22 00:42:24;;;;;;;9.57;6.55;;;13.10;99.90;;;;;;5122295;27;20067;-82
2022/10/22 00:45:03;;;;;;;10.68;6.40;;;13.10;99.90;;;;;;5139438;27;20081;-82
2022/10/22 00:47:48;;;;;;;10.25;5.85;;;13.10;99.90;;;;;;5139882;27;20046;-82
2022/10/22 00:50:26;;;;;;;14.88;6.07;;;13.10;99.90;;;;;;5139581;27;20071;-82
2022/10/22 00:52:53;;;;;;;9.43;6.50;;;13.00;99.90;;;;;;5139432;27;20043;-82
2022/10/22 00:55:20;;;;;;;12.90;7.03;;;13.00;99.90;;;;;;5104970;27;20038;-82
2022/10/22 00:57:46;;;;;;;9.63;6.18;;;13.00;99.90;;;;;;5118617;27;20100;-82
2022/10/22 01:00:13;;;;;;;11.23;5.95;;;13.00;99.90;;;;;;5135583;27;20070;-82
2022/10/22 01:02:38;;;;;;;9.93;6.70;;;13.00;99.90;;;;;;5135839;27;20063;-83
2022/10/22 01:05:05;;;;;;;9.27;6.68;;;13.00;99.90;;;;;;5102725;27;20126;-82
2022/10/22 01:07:32;;;;;;;12.15;6.28;;;13.00;99.90;;;;;;5138341;27;20038;-82
2022/10/22 01:10:20;;;;;;;12.05;6.82;;;13.00;99.90;;;;;;5138187;27;20175;-82
2022/10/22 01:12:56;;;;;;;10.90;6.55;;;13.00;99.90;;;;;;5156478;27;20046;-83
2022/10/22 01:15:31;;;;;;;7.82;6.15;;;13.00;99.90;;;;;;5156259;27;20540;-83
2022/10/22 01:18:13;;;;;;;9.07;6.47;;;13.00;99.90;;;;;;5138897;27;20145;-83
2022/10/22 01:21:06;;;;;;;11.98;6.93;;;12.90;99.90;;;;;;5138178;27;20039;-83
2022/10/22 01:23:53;;;;;;;10.82;6.30;;;12.90;99.90;;;;;;5135740;27;20391;-83
2022/10/22 01:27:00;;;;;;;10.68;6.20;;;12.90;99.90;;;;;;5118119;27;20035;-83
2022/10/22 01:29:37;;;;;;;15.98;7.15;;;12.90;99.90;;;;;;5059692;28;20070;-83
2022/10/22 01:32:09;;;;;;;11.40;6.35;;;12.90;99.90;;;;;;5109368;27;20049;-82
2022/10/22 01:34:39;;;;;;;15.38;7.18;;;12.80;99.90;;;;;;5128784;27;20479;-83
2022/10/22 01:37:05;;;;;;;15.27;7.43;;;12.90;99.90;;;;;;5136740;27;20045;-83
2022/10/22 01:39:33;;;;;;;15.85;6.93;;;12.90;99.90;;;;;;5127973;27;20391;-83
2022/10/22 01:41:59;;;;;;;12.70;6.65;;;12.90;99.90;;;;;;5138020;27;20039;-83
2022/10/22 01:44:36;;;;;;;12.65;6.80;;;12.90;99.90;;;;;;5138205;27;20401;-82
2022/10/22 01:47:14;;;;;;;12.15;6.88;;;12.90;99.90;;;;;;5154978;27;20039;-82
2022/10/22 01:49:59;;;;;;;12.40;7.55;;;12.90;99.90;;;;;;5139409;27;20126;-82
2022/10/22 01:52:54;;;;;;;15.05;7.82;;;12.90;99.90;;;;;;5137947;27;20550;-82
2022/10/22 01:56:05;;;;;;;10.82;6.85;;;12.80;99.90;;;;;;5155249;27;20031;-82
2022/10/22 01:59:04;;;;;;;14.20;7.03;;;12.80;99.90;;;;;;5103844;27;20035;-82
2022/10/22 02:01:50;;;;;;;10.35;6.63;;;12.80;99.90;;;;;;5133805;27;20045;-82
2022/10/22 02:04:24;;;;;;;11.30;6.90;;;12.80;99.90;;;;;;5116625;27;20138;-82
2022/10/22 02:06:53;;;;;;;11.65;7.30;;;12.80;99.90;;;;;;5116789;27;20126;-82
2022/10/22 02:09:22;;;;;;;18.00;7.43;;;12.80;99.90;;;;;;5133948;27;20425;-82
2022/10/22 02:11:50;;;;;;;13.18;7.35;;;12.80;99.90;;;;;;5110331;27;20126;-83
2022/10/22 02:14:18;;;;;;;14.98;7.10;;;12.80;99.90;;;;;;5137146;27;20043;-83
2022/10/22 02:16:46;;;;;;;20.92;7.63;;;12.70;99.90;;;;;;5154244;27;20031;-82
2022/10/22 02:19:27;;;;;;;12.70;7.15;;;12.70;99.90;;;;;;5133893;27;20066;-83
2022/10/22 02:21:53;;;;;;;10.13;7.05;;;12.70;99.90;;;;;;5116810;27;20368;-82
2022/10/22 02:24:20;;;;;;;13.57;7.78;;;12.60;99.90;;;;;;5109589;27;20034;-82
2022/10/22 02:27:21;;;;;;;13.88;7.60;;;12.70;99.90;;;;;;5155121;27;20618;-83
2022/10/22 02:30:07;;;;;;;12.85;6.90;;;12.60;99.90;;;;;;5132438;27;20118;-82
2022/10/22 02:32:56;;;;;;;10.82;6.90;;;12.60;99.90;;;;;;5117235;27;20068;-82
2022/10/22 02:35:26;;;;;;;10.25;6.78;;;12.60;99.90;;;;;;5117577;27;20031;-83
2022/10/22 02:37:56;;;;;;;14.80;7.00;;;12.10;99.90;;;;;;5138624;27;20034;-82
2022/10/22 02:40:27;;;;;;;9.95;7.10;;;12.60;99.90;;;;;;5138842;27;20395;-83
2022/10/22 02:42:53;;;;;;;14.52;7.38;;;12.60;99.90;;;;;;5156305;27;20031;-82
2022/10/22 02:45:20;;;;;;;11.05;7.18;;;12.60;99.90;;;;;;5121162;27;20575;-83
2022/10/22 02:47:51;;;;;;;12.48;7.53;;;12.60;99.90;;;;;;5154908;27;20090;-84
2022/10/22 02:50:17;;;;;;;10.48;7.28;;;12.50;99.90;;;;;;5154696;27;20035;-83
2022/10/22 02:52:43;;;;;;;13.68;7.82;;;12.50;99.90;;;;;;5136859;27;20054;-83
2022/10/22 02:55:08;;;;;;;19.75;6.88;;;12.50;99.90;;;;;;5118357;27;20537;-82
2022/10/22 02:57:34;;;;;;;12.57;7.82;;;12.60;99.90;;;;;;5136754;27;20031;-83
2022/10/22 03:00:00;;;;;;;20.33;8.02;;;12.50;99.90;;;;;;5136934;27;20087;-83
2022/10/22 03:02:25;;;;;;;11.10;7.45;;;12.50;99.90;;;;;;5126463;27;20035;-83
2022/10/22 03:04:51;;;;;;;12.00;7.22;;;12.60;99.90;;;;;;5136550;27;20045;-83
2022/10/22 03:07:17;;;;;;;10.82;7.82;;;12.50;99.90;;;;;;5119924;27;20046;-83
2022/10/22 03:09:42;;;;;;;20.67;8.13;;;12.50;99.90;;;;;;5098923;28;20039;-83
2022/10/22 03:12:08;;;;;;;17.75;7.72;;;12.50;99.90;;;;;;5116460;28;20047;-84
2022/10/22 03:14:34;;;;;;;16.25;8.43;;;12.50;99.90;;;;;;5094027;27;20035;-83
2022/10/22 03:17:00;;;;;;;16.30;8.27;;;12.50;99.90;;;;;;5144430;27;20475;-83
2022/10/22 03:19:26;;;;;;;12.63;7.72;;;12.50;99.90;;;;;;5099505;28;20046;-83
2022/10/22 03:21:59;;;;;;;14.38;7.57;;;12.50;99.90;;;;;;5129565;27;20039;-83
2022/10/22 03:24:29;;;;;;;14.00;8.40;;;12.50;99.90;;;;;;5136888;27;20387;-83
2022/10/22 03:26:54;;;;;;;15.40;7.78;;;12.50;99.90;;;;;;5154264;27;20039;-83
2022/10/22 03:29:24;;;;;;;15.00;8.13;;;12.50;99.90;;;;;;5104740;27;20522;-83
2022/10/22 03:31:50;;;;;;;13.18;8.57;;;12.50;99.90;;;;;;5156975;27;20076;-83
2022/10/22 03:34:16;;;;;;;15.00;8.23;;;12.50;99.90;;;;;;5153110;27;20035;-83
2022/10/22 03:36:42;;;;;;;13.48;8.27;;;12.40;99.90;;;;;;5137276;27;20045;-83
2022/10/22 03:39:10;;;;;;;12.32;7.57;;;12.40;99.90;;;;;;5106664;27;20026;-82
2022/10/22 03:41:36;;;;;;;20.85;8.27;;;12.40;99.90;;;;;;5124037;27;20478;-84
2022/10/22 03:44:03;;;;;;;13.77;8.15;;;12.40;99.90;;;;;;5119499;27;20073;-83
2022/10/22 03:46:29;;;;;;;11.43;8.23;;;12.40;99.90;;;;;;5134406;27;20483;-82
2022/10/22 03:48:54;;;;;;;15.52;9.10;;;12.40;99.90;;;;;;5106825;27;20047;-83
2022/10/22 03:51:20;;;;;;;13.35;8.63;;;12.40;99.90;;;;;;5086550;27;20551;-83
2022/10/22 03:53:46;;;;;;;16.77;8.98;;;12.40;99.90;;;;;;5103056;27;20042;-83
2022/10/22 03:56:12;;;;;;;14.10;8.60;;;12.40;99.90;;;;;;5120168;27;20091;-83
2022/10/22 03:58:40;;;;;;;15.73;8.73;;;12.30;99.90;;;;;;5120409;27;20111;-82
2022/10/22 04:01:07;;;;;;;13.57;8.65;;;12.60;99.90;;;;;;5102854;27;20447;-83
2022/10/22 04:03:33;;;;;;;12.60;8.15;;;12.30;99.90;;;;;;5143596;27;20160;-84
2022/10/22 04:06:03;;;;;;;11.95;8.88;;;12.30;99.90;;;;;;5134191;27;20035;-83
2022/10/22 04:08:29;;;;;;;15.05;8.32;;;12.30;99.90;;;;;;5140062;27;20050;-83
2022/10/22 04:10:55;;;;;;;13.98;9.02;;;12.30;99.90;;;;;;5140313;27;20058;-83
2022/10/22 04:13:21;;;;;;;13.77;8.40;;;12.30;99.90;;;;;;5106192;27;20050;-82
2022/10/22 04:15:46;;;;;;;15.52;9.35;;;12.30;99.90;;;;;;5123873;27;20038;-83
2022/10/22 04:18:12;;;;;;;13.45;8.65;;;12.30;99.90;;;;;;5140217;27;20030;-83
2022/10/22 04:20:39;;;;;;;17.15;9.13;;;12.40;99.90;;;;;;5106582;27;20039;-82
2022/10/22 04:23:05;;;;;;;17.15;8.98;;;12.40;99.90;;;;;;5140295;27;20364;-83
2022/10/22 04:25:31;;;;;;;15.02;9.77;;;12.50;99.90;;;;;;5101115;27;20126;-83
2022/10/22 04:27:56;;;;;;;14.65;9.07;;;12.40;99.90;;;;;;5147978;27;20035;-83
2022/10/22 04:30:22;;;;;;;14.95;9.25;;;12.40;99.90;;;;;;5119852;27;20498;-83
2022/10/22 04:32:48;;;;;;;15.45;8.52;;;12.40;99.90;;;;;;5086367;27;20039;-83
2022/10/22 04:35:13;;;;;;;18.70;9.50;;;12.40;99.90;;;;;;5136004;27;20167;-83
2022/10/22 04:37:39;;;;;;;19.52;8.95;;;12.40;99.90;;;;;;5122046;27;20050;-83
2022/10/22 04:40:05;;;;;;;15.38;8.52;;;12.40;99.90;;;;;;5139265;27;20043;-83
2022/10/22 04:42:31;;;;;;;13.77;8.10;;;12.40;99.90;;;;;;5105249;27;20038;-83
2022/10/22 04:44:57;;;;;;;16.38;8.77;;;12.40;99.90;;;;;;5139823;27;20057;-83
2022/10/22 04:47:22;;;;;;;17.48;8.88;;;12.50;99.90;;;;;;5139274;27;20037;-83
2022/10/22 04:49:48;;;;;;;12.95;8.63;;;12.50;99.90;;;;;;5139247;27;20042;-83
2022/10/22 04:52:14;;;;;;;13.88;8.13;;;12.50;99.90;;;;;;5102097;27;20049;-83
2022/10/22 04:54:39;;;;;;;14.45;8.18;;;12.50;99.90;;;;;;5134514;27;20035;-83
2022/10/22 04:57:05;;;;;;;12.43;8.00;;;12.50;99.90;;;;;;5118644;27;20482;-83
2022/10/22 04:59:31;;;;;;;19.92;8.65;;;12.60;99.90;;;;;;5103607;27;20043;-83
2022/10/22 05:01:56;;;;;;;12.18;8.43;;;12.60;99.90;;;;;;5126718;27;20034;-83
2022/10/22 05:04:22;;;;;;;12.55;7.85;;;12.60;99.90;;;;;;5110196;27;20030;-82
2022/10/22 05:06:48;;;;;;;11.60;7.82;;;12.60;99.90;;;;;;5121863;27;20050;-83
2022/10/22 05:09:16;;;;;;;11.75;7.57;;;12.60;99.90;;;;;;5121724;27;20038;-83
2022/10/22 05:11:47;;;;;;;18.27;8.35;;;12.60;99.90;;;;;;5138986;27;20054;-83
2022/10/22 05:14:15;;;;;;;14.40;7.90;;;12.60;99.90;;;;;;5139378;27;20035;-83
2022/10/22 05:16:40;;;;;;;20.60;7.88;;;12.60;99.90;;;;;;5136714;27;20034;-83
2022/10/22 05:19:07;;;;;;;11.13;7.68;;;12.60;99.90;;;;;;5138587;27;20565;-83
2022/10/22 05:21:33;;;;;;;10.73;7.40;;;12.60;99.90;;;;;;5139117;27;20042;-83
2022/10/22 05:23:59;;;;;;;14.07;7.32;;;12.60;99.90;;;;;;5138800;27;20045;-83
2022/10/22 05:26:26;;;;;;;12.40;7.28;;;12.60;99.90;;;;;;5120051;27;20035;-82
2022/10/22 05:28:52;;;;;;;16.23;7.07;;;12.60;99.90;;;;;;5137975;27;20042;-81
2022/10/22 05:31:18;;;;;;;11.90;7.13;;;12.70;99.90;;;;;;5137917;27;20091;-82
2022/10/22 05:33:45;;;;;;;13.50;7.18;;;12.70;99.90;;;;;;5118140;27;20042;-82
2022/10/22 05:36:14;;;;;;;15.05;7.13;;;12.70;99.90;;;;;;5135004;27;20092;-82
2022/10/22 05:38:40;;;;;;;14.50;7.32;;;12.70;99.90;;;;;;5149125;27;20030;-82
2022/10/22 05:41:08;;;;;;;13.25;6.68;;;12.70;99.90;;;;;;5138393;27;20038;-83
2022/10/22 05:43:35;;;;;;;10.98;6.95;;;12.70;99.90;;;;;;5137996;27;20045;-83
2022/10/22 05:46:06;;;;;;;14.18;6.63;;;12.70;99.90;;;;;;5123501;27;20034;-83
2022/10/22 05:48:31;;;;;;;12.02;6.95;;;12.70;99.90;;;;;;5155822;27;20039;-82
2022/10/22 05:51:05;;;;;;;14.02;6.88;;;12.80;99.90;;;;;;5121729;27;20129;-82
2022/10/22 05:53:32;;;;;;;18.35;7.75;;;12.80;99.90;;;;;;5138834;27;20035;-82
2022/10/22 05:56:04;;;;;;;13.90;7.30;;;12.80;99.90;;;;;;5138595;27;20057;-82
2022/10/22 05:58:30;;;;;;;13.65;6.85;;;12.90;99.90;;;;;;5155607;27;20066;-83
2022/10/22 06:01:08;;;;;;;15.52;7.03;;;12.90;99.90;;;;;;5137275;27;20490;-82
2022/10/22 06:03:33;;;;;;;13.27;6.70;;;13.00;99.90;;;;;;5124034;27;20051;-82
2022/10/22 06:06:01;;;;;;;16.02;7.03;;;13.00;99.90;;;;;;5133383;27;20035;-82
2022/10/22 06:08:28;;;;;;;15.32;6.63;;;13.00;99.90;;;;;;5137673;27;20035;-82
2022/10/22 06:10:53;;;;;;;16.63;7.30;;;13.00;99.90;;;;;;5117094;27;20074;-83
2022/10/22 06:13:19;;;;;;;15.27;7.07;;;13.00;99.90;;;;;;5105897;27;20503;-82
2022/10/22 06:15:45;;;;;;;15.82;6.63;;;13.00;99.90;;;;;;5155255;27;20057;-82
2022/10/22 06:18:11;;;;;;;12.90;6.82;;;13.00;99.90;;;;;;5137762;27;20082;-83
2022/10/22 06:20:37;;;;;;;12.35;7.25;;;13.00;99.90;;;;;;5138560;27;20509;-82
2022/10/22 06:23:02;;;;;;;16.80;7.15;;;13.10;99.90;;;;;;5138211;27;20057;-84
2022/10/22 06:25:28;;;;;;;13.25;6.82;;;13.10;99.90;;;;;;5120916;27;20045;-83
2022/10/22 06:27:54;;;;;;;12.38;6.72;;;13.10;99.90;;;;;;5112910;27;20035;-82
2022/10/22 06:30:19;;;;;;;13.88;6.88;;;13.10;99.90;;;;;;5120371;27;20027;-83
2022/10/22 06:32:45;;;;;;;9.90;6.63;;;13.10;99.90;;;;;;5137756;27;20043;-84
2022/10/22 06:35:11;;;;;;;10.70;6.53;;;13.10;99.90;;;;;;5103377;27;20042;-83
2022/10/22 06:37:36;;;;;;;12.43;6.63;;;13.10;99.90;;;;;;5120716;27;20125;-83
2022/10/22 06:40:03;;;;;;;13.20;6.90;;;13.10;99.90;;;;;;5103590;27;20474;-82
2022/10/22 06:42:28;;;;;;;11.38;6.82;;;13.20;99.90;;;;;;5135239;27;20035;-84
2022/10/22 06:44:54;;;;;;;14.10;7.07;;;13.10;99.90;;;;;;5120694;27;20035;-83
2022/10/22 06:47:20;;;;;;;17.90;6.90;;;13.00;99.90;;;;;;5134799;27;20090;-84
2022/10/22 06:49:47;;;;;;;10.60;6.07;;;13.10;99.90;;;;;;5134265;27;20039;-84
2022/10/22 06:52:13;;;;;;;20.23;6.68;;;13.20;99.90;;;;;;5117224;27;20043;-84
2022/10/22 06:54:38;;;;;;;17.58;6.80;;;13.20;99.90;;;;;;5115927;27;20039;-82
2022/10/22 06:57:04;;;;;;;12.15;6.97;;;13.20;99.90;;;;;;5136847;27;20035;-83
2022/10/22 06:59:30;;;;;;;11.82;7.03;;;13.20;99.90;;;;;;5138034;27;20049;-82
2022/10/22 07:01:56;;;;;;;11.43;6.43;;;13.20;99.90;;;;;;5119396;27;20122;-85
2022/10/22 07:04:21;;;;;;;13.68;6.60;;;13.20;99.90;;;;;;5119768;27;20034;-85
2022/10/22 07:06:47;;;;;;;13.45;6.57;;;13.20;99.90;;;;;;5120343;27;20087;-84
2022/10/22 07:09:13;;;;;;;15.45;7.03;;;13.30;99.90;;;;;;5117431;27;20035;-83
2022/10/22 07:11:44;;;;;;;13.82;6.57;;;13.30;99.90;;;;;;5150960;27;20088;-84
2022/10/22 07:14:11;;;;;;;10.50;6.07;;;13.30;99.90;;;;;;5138319;27;20487;-85
2022/10/22 07:16:37;;;;;;;15.40;6.88;;;13.30;99.90;;;;;;5132559;27;20038;-83
2022/10/22 07:19:03;;;;;;;11.05;6.07;;;13.30;99.90;;;;;;5120452;27;20390;-83
2022/10/22 07:21:30;;;;;;;8.30;5.65;;;13.30;99.90;;;;;;5137213;27;20126;-82
2022/10/22 07:23:56;;;;;;;18.70;6.75;;;13.30;99.90;;;;;;5129792;28;20091;-83
2022/10/22 07:26:24;;;;;;;12.27;6.07;;;13.20;99.90;;;;;;5121386;27;20118;-83
2022/10/22 07:28:50;;;;;;;16.55;6.50;;;13.40;99.90;;;;;;5137353;27;20084;-83
2022/10/22 07:31:17;;;;;;;11.70;6.35;;;13.20;99.90;;;;;;5119387;27;20118;-85
2022/10/22 07:33:44;;;;;;;17.50;6.30;;;13.20;99.90;;;;;;5137543;27;20041;-83
2022/10/22 07:36:16;;;;;;;14.13;6.43;;;13.20;99.90;;;;;;5120085;27;20035;-83
2022/10/22 07:38:46;;;;;;;11.95;6.18;;;13.30;99.90;;;;;;5154627;27;20042;-84
2022/10/22 07:41:12;;;;;;;13.10;6.18;;;13.20;99.90;;;;;;5137189;27;20091;-84
2022/10/22 07:43:38;;;;;;;14.13;6.53;;;13.30;99.90;;;;;;5116502;28;20039;-83
2022/10/22 07:46:04;;;;;;;10.27;5.97;;;13.30;99.90;;;;;;5123566;27;20095;-83
2022/10/22 07:48:29;;;;;;;12.52;6.50;;;13.30;99.90;;;;;;5120113;27;20052;-84
2022/10/22 07:50:57;;;;;;;10.43;6.28;;;13.40;99.90;;;;;;5136688;27;20042;-82
2022/10/22 07:53:22;;;;;;;12.55;6.45;;;13.40;99.90;;;;;;5130927;27;20072;-83
2022/10/22 07:55:49;;;;;;;14.05;6.15;;;13.40;99.90;;;;;;5109672;28;20039;-83
2022/10/22 07:58:16;;;;;;;12.75;6.60;;;13.50;99.90;;;;;;5116540;28;20031;-83
2022/10/22 08:00:42;;;;;;;11.43;5.93;;;13.50;99.90;;;;;;5120693;27;20053;-82
2022/10/22 08:03:10;;;;;;;10.73;6.75;;;13.60;99.90;;;;;;5136400;27;20039;-81
2022/10/22 08:05:38;;;;;;;12.45;6.35;;;13.60;99.90;;;;;;5136879;27;20312;-81
2022/10/22 08:08:04;;;;;;;17.85;5.78;;;13.60;99.90;;;;;;5119520;27;20031;-81
2022/10/22 08:10:31;;;;;;;11.13;5.85;;;13.60;99.90;;;;;;5153531;27;20220;-82
2022/10/22 08:12:57;;;;;;;16.00;6.55;;;13.70;99.90;;;;;;5118853;27;20043;-83
2022/10/22 08:15:24;;;;;;;9.20;6.07;;;13.70;99.90;;;;;;5153811;27;20435;-83
2022/10/22 08:17:50;;;;;;;15.73;6.47;;;13.80;99.90;;;;;;5123490;27;20026;-83
2022/10/22 08:20:16;;;;;;;12.57;7.00;;;13.80;99.90;;;;;;5123257;27;20428;-83
2022/10/22 08:22:41;;;;;;;13.80;7.05;;;13.80;99.90;;;;;;5140233;27;20031;-83
2022/10/22 08:25:08;;;;;;;13.85;6.00;;;13.80;99.90;;;;;;5157268;27;20447;-83
2022/10/22 08:27:34;;;;;;;17.17;5.60;;;13.90;99.90;;;;;;5123985;27;20084;-84
2022/10/22 08:29:59;;;;;;;15.10;5.60;;;14.00;99.90;;;;;;5102269;27;20043;-84
2022/10/22 08:32:25;;;;;;;10.52;5.60;;;14.00;99.90;;;;;;5136546;27;20085;-82
2022/10/22 08:34:51;;;;;;;14.98;5.38;;;14.00;99.90;;;;;;5119747;27;20049;-83
2022/10/22 08:37:16;;;;;;;11.82;4.90;;;14.10;99.90;;;;;;5119470;27;20088;-83
2022/10/22 08:39:43;;;;;;;9.77;5.10;;;14.10;99.90;;;;;;5136554;27;20081;-83
2022/10/22 08:42:33;;;;;;;13.52;5.18;;;14.20;99.90;;;;;;5121385;27;20066;-83
2022/10/22 08:45:17;;;;;;;13.45;5.20;;;14.20;99.90;;;;;;5139820;27;20448;-82
2022/10/22 08:47:49;;;;;;;8.20;4.40;;;14.20;99.90;;;;;;5139691;27;20043;-83
2022/10/22 08:50:22;;;;;;;11.68;4.78;;;14.30;99.90;;;;;;5157112;27;20043;-83
2022/10/22 08:52:54;;;;;;;12.40;4.53;;;14.30;99.90;;;;;;5140368;27;20062;-83
2022/10/22 08:55:23;;;;;;;12.60;4.38;;;14.40;99.90;;;;;;5156555;27;20095;-82
2022/10/22 08:58:26;;;;;;;14.48;4.20;;;14.40;99.90;;;;;;5150603;27;20034;-83
2022/10/22 09:01:01;;;;;;;12.75;4.28;;;14.50;99.90;;;;;;5154058;27;20041;-82
2022/10/22 09:03:40;;;;;;;16.73;5.07;;;14.60;99.90;;;;;;5161633;27;20031;-82
2022/10/22 09:06:14;;;;;;;15.43;4.82;;;14.70;99.90;;;;;;5139850;27;20030;-83
2022/10/22 09:08:43;;;;;;;15.35;4.43;;;14.70;99.90;;;;;;5156794;27;20034;-84
2022/10/22 09:11:12;;;;;;;14.23;4.63;;;14.80;99.90;;;;;;5118616;27;20106;-84
2022/10/22 09:13:40;;;;;;;11.90;4.63;;;14.80;99.90;;;;;;5119054;27;20074;-84
2022/10/22 09:16:42;;;;;;;15.35;4.18;;;14.90;99.90;;;;;;5116760;27;20039;-84
2022/10/22 09:19:49;;;;;;;11.32;4.00;;;14.90;99.90;;;;;;5156996;27;20123;-83
2022/10/22 09:22:32;;;;;;;13.20;4.50;;;14.90;99.90;;;;;;5156786;27;20043;-84
2022/10/22 09:25:08;;;;;;;15.02;5.57;;;14.90;99.90;;;;;;5126410;27;20072;-83
2022/10/22 09:27:34;;;;;;;11.52;4.20;;;14.90;99.90;;;;;;5136363;27;20420;-83
2022/10/22 09:30:01;;;;;;;10.88;3.72;;;14.90;99.90;;;;;;5137431;27;20095;-86
2022/10/22 09:32:28;;;;;;;11.55;3.85;;;14.90;99.90;;;;;;5138933;27;20047;-83
2022/10/22 09:34:57;;;;;;;15.95;3.83;;;14.90;99.90;;;;;;5139013;27;20034;-84
2022/10/22 09:37:27;;;;;;;10.60;3.25;;;14.90;99.90;;;;;;5138674;27;20035;-84
2022/10/22 09:39:55;;;;;;;12.05;3.80;;;14.90;99.90;;;;;;5139124;27;20039;-83
2022/10/22 09:42:21;;;;;;;9.00;3.85;;;14.90;99.90;;;;;;5121994;27;20043;-84
2022/10/22 09:44:57;;;;;;;15.63;4.18;;;15.00;99.90;;;;;;5138359;27;20037;-84
2022/10/22 09:47:41;;;;;;;13.30;3.78;;;15.00;99.90;;;;;;5137914;27;20049;-84
2022/10/22 09:50:37;;;;;;;12.70;3.80;;;15.10;99.90;;;;;;5117960;27;20479;-84
2022/10/22 09:53:23;;;;;;;11.48;3.75;;;15.10;99.90;;;;;;5152782;27;20057;-82
2022/10/22 09:55:52;;;;;;;12.95;3.78;;;15.20;99.90;;;;;;5138837;27;20391;-83
2022/10/22 09:58:18;;;;;;;15.20;4.18;;;15.20;99.90;;;;;;5137592;27;20034;-83
2022/10/22 10:00:56;;;;;;;12.70;4.63;;;15.20;99.90;;;;;;5137513;27;20047;-84
2022/10/22 10:03:25;;;;;;;12.18;4.60;;;15.30;99.90;;;;;;5155252;27;20087;-83
2022/10/22 10:05:54;;;;;;;9.35;4.35;;;15.30;99.90;;;;;;5155048;27;20077;-83
2022/10/22 10:08:21;;;;;;;12.52;4.88;;;15.30;99.90;;;;;;5155275;27;20035;-83
2022/10/22 10:10:51;;;;;;;13.95;4.55;;;15.40;99.90;;;;;;5128808;27;20047;-83
2022/10/22 10:13:29;;;;;;;7.93;4.38;;;15.40;99.90;;;;;;5126617;27;20039;-84
2022/10/22 10:16:16;;;;;;;15.40;5.03;;;15.40;99.90;;;;;;5117468;27;20035;-84
2022/10/22 10:18:57;;;;;;;12.32;4.95;;;15.40;99.90;;;;;;5122647;27;20062;-85
2022/10/22 10:21:31;;;;;;;12.45;5.05;;;15.40;99.90;;;;;;5119692;27;20064;-87
2022/10/22 10:24:12;;;;;;;12.95;4.97;;;15.40;99.90;;;;;;5139227;27;20117;-86
2022/10/22 10:26:42;;;;;;;14.20;5.70;;;15.40;99.90;;;;;;5139256;27;20057;-87
2022/10/22 10:29:22;;;;;;;15.68;5.43;;;15.40;99.90;;;;;;5138476;27;20038;-88
2022/10/22 10:32:01;;;;;;;13.18;5.22;;;15.40;99.90;;;;;;5143501;27;20509;-87
2022/10/22 10:35:03;;;;;;;9.55;5.07;;;15.40;99.90;;;;;;5135502;27;20043;-86
2022/10/22 10:37:52;;;;;;;14.98;5.40;;;15.40;99.90;;;;;;5134307;27;20034;-87
2022/10/22 10:40:39;;;;;;;9.68;5.00;;;15.40;99.90;;;;;;5137813;27;20433;-87
2022/10/22 10:43:23;;;;;;;15.18;5.43;;;15.40;99.90;;;;;;5138468;27;20030;-87
2022/10/22 10:46:17;;;;;;;15.73;5.45;;;15.50;99.90;;;;;;5154788;27;20041;-83
2022/10/22 10:48:47;;;;;;;14.65;5.43;;;15.50;99.90;;;;;;5138576;27;20539;-83
2022/10/22 10:51:44;;;;;;;11.95;5.18;;;15.60;99.90;;;;;;5134324;27;20035;-83
2022/10/22 10:54:34;;;;;;;10.30;4.95;;;15.60;99.90;;;;;;5134016;27;20044;-83
2022/10/22 10:57:42;;;;;;;14.60;5.20;;;15.70;99.90;;;;;;5126643;27;20038;-85
2022/10/22 11:00:18;;;;;;;10.73;5.60;;;15.70;99.90;;;;;;5134487;27;20066;-84
2022/10/22 11:03:03;;;;;;;12.95;5.57;;;15.70;99.90;;;;;;5136235;27;20043;-84
2022/10/22 11:05:36;;;;;;;9.80;5.20;;;15.80;99.90;;;;;;5137784;27;20038;-84
2022/10/22 11:08:03;;;;;;;11.88;5.13;;;15.80;99.90;;;;;;5132524;27;20517;-85
2022/10/22 11:10:47;;;;;;;12.52;5.72;;;15.80;99.90;;;;;;5137331;27;20499;-85
2022/10/22 11:13:21;;;;;;;11.90;5.13;;;15.80;99.90;;;;;;5137340;27;20042;-84
2022/10/22 11:16:23;;;;;;;15.23;5.20;;;15.80;99.90;;;;;;5137393;27;20038;-84
2022/10/22 11:19:29;;;;;;;11.98;5.10;;;15.90;99.90;;;;;;5135708;27;20042;-84
2022/10/22 11:22:08;;;;;;;12.88;4.65;;;16.00;99.90;;;;;;5137224;27;20076;-84
2022/10/22 11:24:46;;;;;;;10.43;4.80;;;16.10;99.90;;;;;;5155008;27;20480;-84
2022/10/22 11:27:30;;;;;;;11.45;4.40;;;16.20;99.90;;;;;;5137576;27;20416;-84
2022/10/22 11:30:15;;;;;;;10.80;4.47;;;16.30;99.90;;;;;;5136976;27;20039;-84
2022/10/22 11:32:45;;;;;;;11.98;5.53;;;16.40;99.90;;;;;;5131569;27;20091;-84
2022/10/22 11:35:18;;;;;;;12.02;5.30;;;16.40;99.90;;;;;;5137335;27;20070;-85
2022/10/22 11:37:45;;;;;;;12.60;4.07;;;16.50;99.90;;;;;;5153969;27;20034;-85
2022/10/22 11:40:28;;;;;;;12.18;4.50;;;16.50;99.90;;;;;;5137457;27;20051;-84
2022/10/22 11:42:57;;;;;;;12.90;3.90;;;16.50;99.90;;;;;;5136730;27;20490;-84
2022/10/22 11:45:27;;;;;;;7.65;3.70;;;16.50;99.90;;;;;;5137148;27;20043;-84
2022/10/22 11:48:06;;;;;;;11.85;3.60;;;16.50;99.90;;;;;;5154705;27;20374;-84
2022/10/22 11:50:45;;;;;;;12.95;3.85;;;16.50;99.90;;;;;;5138635;27;20046;-84
2022/10/22 11:53:11;;;;;;;10.57;3.15;;;16.40;99.90;;;;;;5159010;27;20559;-84
2022/10/22 11:55:47;;;;;;;8.95;3.35;;;16.40;99.90;;;;;;5156165;27;20031;-84
2022/10/22 11:58:28;;;;;;;13.45;3.70;;;16.30;99.90;;;;;;5134679;27;20570;-84
2022/10/22 12:01:01;;;;;;;12.80;3.08;;;16.30;99.90;;;;;;5129531;27;20038;-82
2022/10/22 12:03:29;;;;;;;11.18;3.42;;;16.30;99.90;;;;;;5157899;27;20555;-84
2022/10/22 12:06:10;;;;;;;8.45;3.20;;;16.30;99.90;;;;;;5140774;27;20128;-84
2022/10/22 12:08:43;;;;;;;9.93;3.17;;;16.30;99.90;;;;;;5155321;27;20043;-84
2022/10/22 12:11:09;;;;;;;13.60;5.00;;;16.30;99.90;;;;;;5140629;27;20081;-83
2022/10/22 12:14:12;;;;;;;11.23;3.20;;;16.30;99.90;;;;;;5120279;27;20082;-83
2022/10/22 12:16:50;;;;;;;11.40;3.30;;;16.40;99.90;;;;;;5119815;27;20553;-83
2022/10/22 12:19:21;;;;;;;10.80;3.58;;;16.30;99.90;;;;;;5120082;27;20043;-84
2022/10/22 12:21:58;;;;;;;9.68;3.13;;;16.30;99.90;;;;;;5137169;27;20158;-84
2022/10/22 12:24:30;;;;;;;14.25;3.25;;;16.30;99.90;;;;;;5137225;27;20066;-84
2022/10/22 12:26:56;;;;;;;9.43;3.00;;;16.30;99.90;;;;;;5113639;27;20054;-83
2022/10/22 12:29:22;;;;;;;9.73;3.20;;;16.40;99.90;;;;;;5106312;27;20049;-84
2022/10/22 12:31:48;;;;;;;9.43;2.78;;;16.40;99.90;;;;;;5106194;27;20035;-85
2022/10/22 12:34:20;;;;;;;8.27;2.47;;;16.40;99.90;;;;;;5105480;27;20045;-85
2022/10/22 12:36:48;;;;;;;7.68;2.80;;;16.40;99.90;;;;;;5157213;27;20035;-84
2022/10/22 12:39:20;;;;;;;10.55;2.80;;;16.40;99.90;;;;;;5140544;27;20482;-84
2022/10/22 12:41:46;;;;;;;10.95;2.88;;;16.50;99.90;;;;;;5138145;27;20045;-85
2022/10/22 12:44:15;;;;;;;9.50;2.63;;;16.60;99.90;;;;;;5137037;27;20394;-84
2022/10/22 12:46:42;;;;;;;11.23;4.05;;;16.70;99.90;;;;;;5156298;27;20644;-84
2022/10/22 12:49:18;;;;;;;10.18;2.83;;;16.90;99.90;;;;;;5133238;27;20053;-84
2022/10/22 12:51:45;;;;;;;7.30;2.75;;;17.00;99.90;;;;;;5133760;27;20095;-84
2022/10/22 12:54:29;;;;;;;8.52;2.40;;;17.00;99.90;;;;;;5123110;27;20039;-84
2022/10/22 12:56:56;;;;;;;13.43;2.60;;;17.00;99.90;;;;;;5138239;27;20360;-84
2022/10/22 12:59:25;;;;;;;13.82;2.55;;;16.90;99.90;;;;;;5116467;27;20074;-84